sensor_id;sensor_type;location;lat;lon;timestamp;P1;durP1;ratioP1;P2;durP2;ratioP2
38859;SDS011;24609;48.316;16.174;2023-10-19T00:01:15;21.05;;;16.00;;
38859;SDS011;24609;48.316;16.174;2023-10-19T00:03:41;21.25;;;16.40;;
38859;SDS011;24609;48.316;16.174;2023-10-19T00:06:10;20.05;;;15.73;;
38859;SDS011;24609;48.316;16.174;2023-10-19T00:08:39;20.20;;;15.98;;
38859;SDS011;24609;48.316;16.174;2023-10-19T00:11:07;22.20;;;16.38;;
38859;SDS011;24609;48.316;16.174;2023-10-19T00:13:46;22.88;;;17.30;;
38859;SDS011;24609;48.316;16.174;2023-10-19T00:16:15;22.38;;;16.77;;
38859;SDS011;24609;48.316;16.174;2023-10-19T00:18:43;21.80;;;16.65;;
38859;SDS011;24609;48.316;16.174;2023-10-19T00:21:09;22.40;;;18.33;;
38859;SDS011;24609;48.316;16.174;2023-10-19T00:23:45;22.58;;;16.65;;
38859;SDS011;24609;48.316;16.174;2023-10-19T00:26:16;22.20;;;16.08;;
38859;SDS011;24609;48.316;16.174;2023-10-19T00:28:44;23.58;;;16.20;;
38859;SDS011;24609;48.316;16.174;2023-10-19T00:31:14;20.88;;;16.55;;
38859;SDS011;24609;48.316;16.174;2023-10-19T00:33:40;24.80;;;16.92;;
38859;SDS011;24609;48.316;16.174;2023-10-19T00:36:09;26.20;;;18.00;;
38859;SDS011;24609;48.316;16.174;2023-10-19T00:38:38;21.42;;;17.17;;
38859;SDS011;24609;48.316;16.174;2023-10-19T00:41:12;21.23;;;15.73;;
38859;SDS011;24609;48.316;16.174;2023-10-19T00:43:42;18.75;;;15.80;;
38859;SDS011;24609;48.316;16.174;2023-10-19T00:46:12;17.52;;;14.95;;
38859;SDS011;24609;48.316;16.174;2023-10-19T00:48:45;21.88;;;17.42;;
38859;SDS011;24609;48.316;16.174;2023-10-19T00:51:16;21.80;;;17.05;;
38859;SDS011;24609;48.316;16.174;2023-10-19T00:53:58;22.85;;;18.15;;
38859;SDS011;24609;48.316;16.174;2023-10-19T00:56:30;23.15;;;16.88;;
38859;SDS011;24609;48.316;16.174;2023-10-19T00:58:59;21.10;;;17.43;;
38859;SDS011;24609;48.316;16.174;2023-10-19T01:01:37;20.63;;;16.83;;
38859;SDS011;24609;48.316;16.174;2023-10-19T01:04:09;21.30;;;16.17;;
38859;SDS011;24609;48.316;16.174;2023-10-19T01:06:39;19.73;;;16.00;;
38859;SDS011;24609;48.316;16.174;2023-10-19T01:09:24;23.85;;;17.58;;
38859;SDS011;24609;48.316;16.174;2023-10-19T01:11:52;22.35;;;16.85;;
38859;SDS011;24609;48.316;16.174;2023-10-19T01:14:21;20.00;;;17.30;;
38859;SDS011;24609;48.316;16.174;2023-10-19T01:16:52;20.77;;;15.75;;
38859;SDS011;24609;48.316;16.174;2023-10-19T01:19:22;22.45;;;17.45;;
38859;SDS011;24609;48.316;16.174;2023-10-19T01:21:48;21.10;;;17.15;;
38859;SDS011;24609;48.316;16.174;2023-10-19T01:24:21;21.63;;;18.08;;
38859;SDS011;24609;48.316;16.174;2023-10-19T01:27:06;21.00;;;16.33;;
38859;SDS011;24609;48.316;16.174;2023-10-19T01:29:35;21.33;;;17.52;;
38859;SDS011;24609;48.316;16.174;2023-10-19T01:32:03;22.75;;;17.27;;
38859;SDS011;24609;48.316;16.174;2023-10-19T01:34:37;21.00;;;17.48;;
38859;SDS011;24609;48.316;16.174;2023-10-19T01:37:02;23.88;;;17.95;;
38859;SDS011;24609;48.316;16.174;2023-10-19T01:39:32;22.63;;;17.73;;
38859;SDS011;24609;48.316;16.174;2023-10-19T01:42:00;22.92;;;17.60;;
38859;SDS011;24609;48.316;16.174;2023-10-19T01:44:26;21.42;;;17.48;;
38859;SDS011;24609;48.316;16.174;2023-10-19T01:46:52;20.27;;;16.23;;
38859;SDS011;24609;48.316;16.174;2023-10-19T01:49:18;19.88;;;16.45;;
38859;SDS011;24609;48.316;16.174;2023-10-19T01:51:53;23.30;;;17.38;;
38859;SDS011;24609;48.316;16.174;2023-10-19T01:54:20;23.55;;;18.67;;
38859;SDS011;24609;48.316;16.174;2023-10-19T01:56:51;21.70;;;17.20;;
38859;SDS011;24609;48.316;16.174;2023-10-19T01:59:24;20.88;;;16.70;;
38859;SDS011;24609;48.316;16.174;2023-10-19T02:01:56;21.80;;;18.27;;
38859;SDS011;24609;48.316;16.174;2023-10-19T02:04:22;31.92;;;17.83;;
38859;SDS011;24609;48.316;16.174;2023-10-19T02:06:49;20.90;;;17.92;;
38859;SDS011;24609;48.316;16.174;2023-10-19T02:09:17;22.70;;;18.25;;
38859;SDS011;24609;48.316;16.174;2023-10-19T02:11:47;22.30;;;19.08;;
38859;SDS011;24609;48.316;16.174;2023-10-19T02:14:14;24.17;;;18.63;;
38859;SDS011;24609;48.316;16.174;2023-10-19T02:16:44;20.13;;;17.30;;
38859;SDS011;24609;48.316;16.174;2023-10-19T02:19:12;23.25;;;17.52;;
38859;SDS011;24609;48.316;16.174;2023-10-19T02:21:38;24.80;;;18.90;;
38859;SDS011;24609;48.316;16.174;2023-10-19T02:24:08;21.10;;;18.23;;
38859;SDS011;24609;48.316;16.174;2023-10-19T02:26:35;20.58;;;17.20;;
38859;SDS011;24609;48.316;16.174;2023-10-19T02:29:03;23.10;;;17.55;;
38859;SDS011;24609;48.316;16.174;2023-10-19T02:31:32;22.15;;;18.50;;
38859;SDS011;24609;48.316;16.174;2023-10-19T02:34:05;25.48;;;19.00;;
38859;SDS011;24609;48.316;16.174;2023-10-19T02:36:32;25.08;;;20.40;;
38859;SDS011;24609;48.316;16.174;2023-10-19T02:39:02;23.55;;;20.13;;
38859;SDS011;24609;48.316;16.174;2023-10-19T02:41:33;24.10;;;18.65;;
38859;SDS011;24609;48.316;16.174;2023-10-19T02:44:13;23.58;;;17.52;;
38859;SDS011;24609;48.316;16.174;2023-10-19T02:46:42;23.95;;;19.73;;
38859;SDS011;24609;48.316;16.174;2023-10-19T02:49:17;26.50;;;20.15;;
38859;SDS011;24609;48.316;16.174;2023-10-19T02:51:48;26.80;;;20.58;;
38859;SDS011;24609;48.316;16.174;2023-10-19T02:54:15;25.80;;;18.45;;
38859;SDS011;24609;48.316;16.174;2023-10-19T02:56:46;24.17;;;20.05;;
38859;SDS011;24609;48.316;16.174;2023-10-19T02:59:14;28.42;;;21.85;;
38859;SDS011;24609;48.316;16.174;2023-10-19T03:01:41;23.70;;;20.23;;
38859;SDS011;24609;48.316;16.174;2023-10-19T03:04:09;25.13;;;19.63;;
38859;SDS011;24609;48.316;16.174;2023-10-19T03:06:37;26.25;;;21.15;;
38859;SDS011;24609;48.316;16.174;2023-10-19T03:09:05;24.20;;;18.27;;
38859;SDS011;24609;48.316;16.174;2023-10-19T03:11:39;23.27;;;18.20;;
38859;SDS011;24609;48.316;16.174;2023-10-19T03:14:09;25.42;;;20.00;;
38859;SDS011;24609;48.316;16.174;2023-10-19T03:16:36;24.83;;;19.67;;
38859;SDS011;24609;48.316;16.174;2023-10-19T03:19:03;23.75;;;17.83;;
38859;SDS011;24609;48.316;16.174;2023-10-19T03:21:29;28.00;;;20.15;;
38859;SDS011;24609;48.316;16.174;2023-10-19T03:23:59;23.00;;;18.25;;
38859;SDS011;24609;48.316;16.174;2023-10-19T03:26:30;22.60;;;18.35;;
38859;SDS011;24609;48.316;16.174;2023-10-19T03:28:56;23.17;;;17.67;;
38859;SDS011;24609;48.316;16.174;2023-10-19T03:31:32;22.05;;;18.27;;
38859;SDS011;24609;48.316;16.174;2023-10-19T03:34:03;25.30;;;19.10;;
38859;SDS011;24609;48.316;16.174;2023-10-19T03:36:31;21.98;;;18.08;;
38859;SDS011;24609;48.316;16.174;2023-10-19T03:38:57;23.90;;;19.75;;
38859;SDS011;24609;48.316;16.174;2023-10-19T03:41:36;26.58;;;19.70;;
38859;SDS011;24609;48.316;16.174;2023-10-19T03:44:03;23.40;;;18.65;;
38859;SDS011;24609;48.316;16.174;2023-10-19T03:46:29;26.80;;;21.35;;
38859;SDS011;24609;48.316;16.174;2023-10-19T03:48:56;21.83;;;18.90;;
38859;SDS011;24609;48.316;16.174;2023-10-19T03:51:29;23.13;;;18.98;;
38859;SDS011;24609;48.316;16.174;2023-10-19T03:54:05;25.77;;;19.88;;
38859;SDS011;24609;48.316;16.174;2023-10-19T03:56:45;21.45;;;18.20;;
38859;SDS011;24609;48.316;16.174;2023-10-19T03:59:13;24.45;;;18.75;;
38859;SDS011;24609;48.316;16.174;2023-10-19T04:01:38;25.00;;;19.17;;
38859;SDS011;24609;48.316;16.174;2023-10-19T04:04:04;24.95;;;20.33;;
38859;SDS011;24609;48.316;16.174;2023-10-19T04:06:30;21.90;;;18.73;;
38859;SDS011;24609;48.316;16.174;2023-10-19T04:08:56;23.42;;;19.58;;
38859;SDS011;24609;48.316;16.174;2023-10-19T04:11:21;24.92;;;20.27;;
38859;SDS011;24609;48.316;16.174;2023-10-19T04:13:48;23.02;;;19.35;;
38859;SDS011;24609;48.316;16.174;2023-10-19T04:16:18;22.20;;;19.30;;
38859;SDS011;24609;48.316;16.174;2023-10-19T04:18:44;22.08;;;18.67;;
38859;SDS011;24609;48.316;16.174;2023-10-19T04:21:10;24.50;;;18.67;;
38859;SDS011;24609;48.316;16.174;2023-10-19T04:23:35;24.67;;;19.42;;
38859;SDS011;24609;48.316;16.174;2023-10-19T04:26:02;27.35;;;24.35;;
38859;SDS011;24609;48.316;16.174;2023-10-19T04:28:35;26.70;;;23.48;;
38859;SDS011;24609;48.316;16.174;2023-10-19T04:31:14;26.23;;;22.20;;
38859;SDS011;24609;48.316;16.174;2023-10-19T04:33:42;25.33;;;21.25;;
38859;SDS011;24609;48.316;16.174;2023-10-19T04:36:10;28.50;;;21.35;;
38859;SDS011;24609;48.316;16.174;2023-10-19T04:38:40;25.83;;;20.00;;
38859;SDS011;24609;48.316;16.174;2023-10-19T04:41:09;24.33;;;19.48;;
38859;SDS011;24609;48.316;16.174;2023-10-19T04:43:38;28.58;;;23.67;;
38859;SDS011;24609;48.316;16.174;2023-10-19T04:46:08;23.90;;;21.30;;
38859;SDS011;24609;48.316;16.174;2023-10-19T04:48:36;29.15;;;24.45;;
38859;SDS011;24609;48.316;16.174;2023-10-19T04:51:05;25.85;;;22.30;;
38859;SDS011;24609;48.316;16.174;2023-10-19T04:53:32;23.35;;;20.42;;
38859;SDS011;24609;48.316;16.174;2023-10-19T04:55:57;23.27;;;20.05;;
38859;SDS011;24609;48.316;16.174;2023-10-19T04:58:25;23.92;;;20.80;;
38859;SDS011;24609;48.316;16.174;2023-10-19T05:00:53;28.27;;;22.15;;
38859;SDS011;24609;48.316;16.174;2023-10-19T05:03:18;25.88;;;21.95;;
38859;SDS011;24609;48.316;16.174;2023-10-19T05:05:44;25.52;;;22.67;;
38859;SDS011;24609;48.316;16.174;2023-10-19T05:08:10;27.50;;;21.67;;
38859;SDS011;24609;48.316;16.174;2023-10-19T05:10:36;27.02;;;22.05;;
38859;SDS011;24609;48.316;16.174;2023-10-19T05:13:02;26.20;;;20.88;;
38859;SDS011;24609;48.316;16.174;2023-10-19T05:15:28;25.05;;;20.88;;
38859;SDS011;24609;48.316;16.174;2023-10-19T05:17:54;25.65;;;22.08;;
38859;SDS011;24609;48.316;16.174;2023-10-19T05:20:20;27.30;;;22.55;;
38859;SDS011;24609;48.316;16.174;2023-10-19T05:22:46;29.08;;;23.45;;
38859;SDS011;24609;48.316;16.174;2023-10-19T05:25:12;26.20;;;22.45;;
38859;SDS011;24609;48.316;16.174;2023-10-19T05:27:38;27.33;;;22.58;;
38859;SDS011;24609;48.316;16.174;2023-10-19T05:30:04;29.05;;;23.70;;
38859;SDS011;24609;48.316;16.174;2023-10-19T05:32:30;27.73;;;23.17;;
38859;SDS011;24609;48.316;16.174;2023-10-19T05:34:56;30.42;;;23.05;;
38859;SDS011;24609;48.316;16.174;2023-10-19T05:37:22;27.58;;;23.10;;
38859;SDS011;24609;48.316;16.174;2023-10-19T05:39:48;27.58;;;21.58;;
38859;SDS011;24609;48.316;16.174;2023-10-19T05:42:17;28.42;;;23.92;;
38859;SDS011;24609;48.316;16.174;2023-10-19T05:44:43;30.20;;;22.98;;
38859;SDS011;24609;48.316;16.174;2023-10-19T05:47:08;26.58;;;22.65;;
38859;SDS011;24609;48.316;16.174;2023-10-19T05:49:34;31.17;;;23.27;;
38859;SDS011;24609;48.316;16.174;2023-10-19T05:52:00;27.40;;;22.77;;
38859;SDS011;24609;48.316;16.174;2023-10-19T05:54:26;29.88;;;23.63;;
38859;SDS011;24609;48.316;16.174;2023-10-19T05:56:52;27.50;;;22.63;;
38859;SDS011;24609;48.316;16.174;2023-10-19T05:59:18;25.42;;;21.48;;
38859;SDS011;24609;48.316;16.174;2023-10-19T06:01:44;28.30;;;21.77;;
38859;SDS011;24609;48.316;16.174;2023-10-19T06:04:12;29.67;;;23.05;;
38859;SDS011;24609;48.316;16.174;2023-10-19T06:06:38;25.88;;;21.85;;
38859;SDS011;24609;48.316;16.174;2023-10-19T06:09:07;27.20;;;22.67;;
38859;SDS011;24609;48.316;16.174;2023-10-19T06:11:36;29.02;;;25.60;;
38859;SDS011;24609;48.316;16.174;2023-10-19T06:14:08;25.52;;;22.73;;
38859;SDS011;24609;48.316;16.174;2023-10-19T06:16:34;30.77;;;23.52;;
38859;SDS011;24609;48.316;16.174;2023-10-19T06:19:01;28.20;;;24.17;;
38859;SDS011;24609;48.316;16.174;2023-10-19T06:21:28;27.80;;;22.42;;
38859;SDS011;24609;48.316;16.174;2023-10-19T06:23:55;23.73;;;20.60;;
38859;SDS011;24609;48.316;16.174;2023-10-19T06:26:20;28.33;;;23.25;;
38859;SDS011;24609;48.316;16.174;2023-10-19T06:28:46;27.05;;;21.25;;
38859;SDS011;24609;48.316;16.174;2023-10-19T06:31:12;28.15;;;21.67;;
38859;SDS011;24609;48.316;16.174;2023-10-19T06:33:39;25.70;;;20.92;;
38859;SDS011;24609;48.316;16.174;2023-10-19T06:36:06;31.02;;;23.65;;
38859;SDS011;24609;48.316;16.174;2023-10-19T06:38:32;25.17;;;20.75;;
38859;SDS011;24609;48.316;16.174;2023-10-19T06:41:01;25.73;;;21.50;;
38859;SDS011;24609;48.316;16.174;2023-10-19T06:43:36;28.50;;;20.65;;
38859;SDS011;24609;48.316;16.174;2023-10-19T06:46:01;28.73;;;20.42;;
38859;SDS011;24609;48.316;16.174;2023-10-19T06:48:27;28.98;;;20.83;;
38859;SDS011;24609;48.316;16.174;2023-10-19T06:50:53;24.55;;;19.98;;
38859;SDS011;24609;48.316;16.174;2023-10-19T06:53:18;19.92;;;17.65;;
38859;SDS011;24609;48.316;16.174;2023-10-19T06:55:44;25.30;;;18.67;;
38859;SDS011;24609;48.316;16.174;2023-10-19T06:58:10;25.60;;;21.85;;
38859;SDS011;24609;48.316;16.174;2023-10-19T07:00:37;26.63;;;20.92;;
38859;SDS011;24609;48.316;16.174;2023-10-19T07:03:07;25.45;;;18.35;;
38859;SDS011;24609;48.316;16.174;2023-10-19T07:05:33;25.83;;;18.65;;
38859;SDS011;24609;48.316;16.174;2023-10-19T07:07:59;25.80;;;17.55;;
38859;SDS011;24609;48.316;16.174;2023-10-19T07:10:26;29.20;;;20.38;;
38859;SDS011;24609;48.316;16.174;2023-10-19T07:12:53;26.27;;;20.83;;
38859;SDS011;24609;48.316;16.174;2023-10-19T07:15:19;27.85;;;22.33;;
38859;SDS011;24609;48.316;16.174;2023-10-19T07:17:47;27.02;;;22.35;;
38859;SDS011;24609;48.316;16.174;2023-10-19T07:20:15;24.23;;;18.27;;
38859;SDS011;24609;48.316;16.174;2023-10-19T07:22:51;22.52;;;17.63;;
38859;SDS011;24609;48.316;16.174;2023-10-19T07:25:17;30.02;;;20.58;;
38859;SDS011;24609;48.316;16.174;2023-10-19T07:30:18;30.52;;;21.83;;
38859;SDS011;24609;48.316;16.174;2023-10-19T07:32:47;29.85;;;20.67;;
38859;SDS011;24609;48.316;16.174;2023-10-19T07:35:25;38.22;;;23.80;;
38859;SDS011;24609;48.316;16.174;2023-10-19T07:37:56;29.27;;;20.35;;
38859;SDS011;24609;48.316;16.174;2023-10-19T07:40:22;27.08;;;18.52;;
38859;SDS011;24609;48.316;16.174;2023-10-19T07:42:49;27.52;;;19.80;;
38859;SDS011;24609;48.316;16.174;2023-10-19T07:45:17;29.48;;;21.15;;
38859;SDS011;24609;48.316;16.174;2023-10-19T07:47:43;38.25;;;23.65;;
38859;SDS011;24609;48.316;16.174;2023-10-19T07:50:10;32.85;;;22.48;;
38859;SDS011;24609;48.316;16.174;2023-10-19T07:52:42;28.23;;;21.73;;
38859;SDS011;24609;48.316;16.174;2023-10-19T07:55:14;24.75;;;20.08;;
38859;SDS011;24609;48.316;16.174;2023-10-19T07:57:41;24.98;;;19.45;;
38859;SDS011;24609;48.316;16.174;2023-10-19T08:00:07;24.88;;;19.88;;
38859;SDS011;24609;48.316;16.174;2023-10-19T08:02:39;22.15;;;18.17;;
38859;SDS011;24609;48.316;16.174;2023-10-19T08:05:06;22.33;;;18.75;;
38859;SDS011;24609;48.316;16.174;2023-10-19T08:07:33;24.05;;;18.70;;
38859;SDS011;24609;48.316;16.174;2023-10-19T08:10:02;27.48;;;20.88;;
38859;SDS011;24609;48.316;16.174;2023-10-19T08:12:30;26.00;;;20.80;;
38859;SDS011;24609;48.316;16.174;2023-10-19T08:14:58;24.98;;;19.90;;
38859;SDS011;24609;48.316;16.174;2023-10-19T08:17:24;23.75;;;19.38;;
38859;SDS011;24609;48.316;16.174;2023-10-19T08:19:50;25.33;;;19.45;;
38859;SDS011;24609;48.316;16.174;2023-10-19T08:22:16;22.75;;;17.95;;
38859;SDS011;24609;48.316;16.174;2023-10-19T08:24:42;23.52;;;18.48;;
38859;SDS011;24609;48.316;16.174;2023-10-19T08:27:11;24.05;;;17.55;;
38859;SDS011;24609;48.316;16.174;2023-10-19T08:29:38;23.92;;;18.42;;
38859;SDS011;24609;48.316;16.174;2023-10-19T08:32:04;22.77;;;18.38;;
38859;SDS011;24609;48.316;16.174;2023-10-19T08:34:33;24.25;;;21.63;;
38859;SDS011;24609;48.316;16.174;2023-10-19T08:37:01;25.70;;;17.92;;
38859;SDS011;24609;48.316;16.174;2023-10-19T08:39:27;24.92;;;18.70;;
38859;SDS011;24609;48.316;16.174;2023-10-19T08:41:53;25.55;;;18.23;;
38859;SDS011;24609;48.316;16.174;2023-10-19T08:44:20;23.92;;;19.90;;
38859;SDS011;24609;48.316;16.174;2023-10-19T08:46:46;27.10;;;19.65;;
38859;SDS011;24609;48.316;16.174;2023-10-19T08:49:13;21.63;;;18.67;;
38859;SDS011;24609;48.316;16.174;2023-10-19T08:51:40;29.25;;;20.52;;
38859;SDS011;24609;48.316;16.174;2023-10-19T08:54:09;28.48;;;20.50;;
38859;SDS011;24609;48.316;16.174;2023-10-19T08:56:37;22.48;;;19.30;;
38859;SDS011;24609;48.316;16.174;2023-10-19T08:59:04;23.15;;;19.00;;
38859;SDS011;24609;48.316;16.174;2023-10-19T09:01:31;23.73;;;18.60;;
38859;SDS011;24609;48.316;16.174;2023-10-19T09:03:59;26.17;;;21.08;;
38859;SDS011;24609;48.316;16.174;2023-10-19T09:06:25;26.30;;;20.23;;
38859;SDS011;24609;48.316;16.174;2023-10-19T09:08:54;27.33;;;20.63;;
38859;SDS011;24609;48.316;16.174;2023-10-19T09:11:20;21.52;;;18.33;;
38859;SDS011;24609;48.316;16.174;2023-10-19T09:13:47;22.92;;;18.98;;
38859;SDS011;24609;48.316;16.174;2023-10-19T09:16:14;24.58;;;21.08;;
38859;SDS011;24609;48.316;16.174;2023-10-19T09:18:47;25.35;;;21.45;;
38859;SDS011;24609;48.316;16.174;2023-10-19T09:21:17;27.30;;;23.95;;
38859;SDS011;24609;48.316;16.174;2023-10-19T09:23:52;28.42;;;22.02;;
38859;SDS011;24609;48.316;16.174;2023-10-19T09:26:19;26.93;;;21.73;;
38859;SDS011;24609;48.316;16.174;2023-10-19T09:28:47;26.63;;;21.35;;
38859;SDS011;24609;48.316;16.174;2023-10-19T09:31:14;26.17;;;22.15;;
38859;SDS011;24609;48.316;16.174;2023-10-19T09:33:41;27.08;;;23.35;;
38859;SDS011;24609;48.316;16.174;2023-10-19T09:36:09;27.58;;;23.13;;
38859;SDS011;24609;48.316;16.174;2023-10-19T09:41:06;25.58;;;22.13;;
38859;SDS011;24609;48.316;16.174;2023-10-19T09:43:41;28.02;;;22.70;;
38859;SDS011;24609;48.316;16.174;2023-10-19T09:46:22;27.73;;;24.17;;
38859;SDS011;24609;48.316;16.174;2023-10-19T09:48:49;29.77;;;24.65;;
38859;SDS011;24609;48.316;16.174;2023-10-19T09:51:15;26.73;;;23.80;;
38859;SDS011;24609;48.316;16.174;2023-10-19T09:54:02;28.00;;;24.33;;
38859;SDS011;24609;48.316;16.174;2023-10-19T09:56:52;25.98;;;22.42;;
38859;SDS011;24609;48.316;16.174;2023-10-19T09:59:31;28.40;;;24.00;;
38859;SDS011;24609;48.316;16.174;2023-10-19T10:02:12;30.15;;;24.90;;
38859;SDS011;24609;48.316;16.174;2023-10-19T10:04:40;30.58;;;24.90;;
38859;SDS011;24609;48.316;16.174;2023-10-19T10:07:07;28.83;;;25.70;;
38859;SDS011;24609;48.316;16.174;2023-10-19T10:09:38;28.42;;;25.33;;
38859;SDS011;24609;48.316;16.174;2023-10-19T10:12:15;52.58;;;35.85;;
38859;SDS011;24609;48.316;16.174;2023-10-19T10:14:45;48.72;;;37.90;;
38859;SDS011;24609;48.316;16.174;2023-10-19T10:19:48;28.63;;;23.30;;
38859;SDS011;24609;48.316;16.174;2023-10-19T10:22:13;29.75;;;24.83;;
38859;SDS011;24609;48.316;16.174;2023-10-19T10:24:45;26.05;;;23.30;;
38859;SDS011;24609;48.316;16.174;2023-10-19T10:27:11;26.65;;;23.13;;
38859;SDS011;24609;48.316;16.174;2023-10-19T10:35:10;29.20;;;24.23;;
38859;SDS011;24609;48.316;16.174;2023-10-19T10:37:55;28.35;;;25.30;;
38859;SDS011;24609;48.316;16.174;2023-10-19T10:40:21;28.25;;;24.13;;
38859;SDS011;24609;48.316;16.174;2023-10-19T10:42:48;27.25;;;23.45;;
38859;SDS011;24609;48.316;16.174;2023-10-19T10:45:19;26.75;;;23.80;;
38859;SDS011;24609;48.316;16.174;2023-10-19T10:47:46;25.35;;;22.52;;
38859;SDS011;24609;48.316;16.174;2023-10-19T10:50:12;24.15;;;21.55;;
38859;SDS011;24609;48.316;16.174;2023-10-19T10:52:45;29.70;;;24.10;;
38859;SDS011;24609;48.316;16.174;2023-10-19T10:55:12;31.27;;;26.30;;
38859;SDS011;24609;48.316;16.174;2023-10-19T10:57:39;28.95;;;25.48;;
38859;SDS011;24609;48.316;16.174;2023-10-19T11:00:06;29.30;;;23.02;;
38859;SDS011;24609;48.316;16.174;2023-10-19T11:02:35;27.00;;;24.15;;
38859;SDS011;24609;48.316;16.174;2023-10-19T11:05:01;26.45;;;23.02;;
38859;SDS011;24609;48.316;16.174;2023-10-19T11:07:28;25.25;;;22.50;;
38859;SDS011;24609;48.316;16.174;2023-10-19T11:09:54;26.42;;;21.65;;
38859;SDS011;24609;48.316;16.174;2023-10-19T11:12:20;26.13;;;21.42;;
38859;SDS011;24609;48.316;16.174;2023-10-19T11:14:52;23.73;;;20.88;;
38859;SDS011;24609;48.316;16.174;2023-10-19T11:17:18;23.90;;;20.83;;
38859;SDS011;24609;48.316;16.174;2023-10-19T11:19:44;22.38;;;19.92;;
38859;SDS011;24609;48.316;16.174;2023-10-19T11:22:10;22.40;;;19.98;;
38859;SDS011;24609;48.316;16.174;2023-10-19T11:24:36;21.92;;;18.90;;
38859;SDS011;24609;48.316;16.174;2023-10-19T11:27:05;21.30;;;18.80;;
38859;SDS011;24609;48.316;16.174;2023-10-19T11:29:32;20.92;;;18.20;;
38859;SDS011;24609;48.316;16.174;2023-10-19T11:32:01;23.63;;;19.83;;
38859;SDS011;24609;48.316;16.174;2023-10-19T11:34:27;21.27;;;18.63;;
38859;SDS011;24609;48.316;16.174;2023-10-19T11:36:56;21.50;;;17.55;;
38859;SDS011;24609;48.316;16.174;2023-10-19T11:39:24;22.95;;;19.40;;
38859;SDS011;24609;48.316;16.174;2023-10-19T11:41:53;23.00;;;19.95;;
38859;SDS011;24609;48.316;16.174;2023-10-19T11:44:19;23.27;;;19.90;;
38859;SDS011;24609;48.316;16.174;2023-10-19T11:46:45;23.20;;;20.67;;
38859;SDS011;24609;48.316;16.174;2023-10-19T11:49:11;21.10;;;18.58;;
38859;SDS011;24609;48.316;16.174;2023-10-19T11:51:37;21.40;;;19.20;;
38859;SDS011;24609;48.316;16.174;2023-10-19T11:54:04;23.95;;;19.63;;
38859;SDS011;24609;48.316;16.174;2023-10-19T11:56:33;22.73;;;18.20;;
38859;SDS011;24609;48.316;16.174;2023-10-19T11:58:59;21.08;;;17.65;;
38859;SDS011;24609;48.316;16.174;2023-10-19T12:01:26;19.00;;;16.73;;
38859;SDS011;24609;48.316;16.174;2023-10-19T12:03:54;20.48;;;18.30;;
38859;SDS011;24609;48.316;16.174;2023-10-19T12:06:20;18.73;;;16.85;;
38859;SDS011;24609;48.316;16.174;2023-10-19T12:08:48;19.25;;;17.17;;
38859;SDS011;24609;48.316;16.174;2023-10-19T12:11:14;18.98;;;16.10;;
38859;SDS011;24609;48.316;16.174;2023-10-19T12:13:40;18.38;;;16.58;;
38859;SDS011;24609;48.316;16.174;2023-10-19T12:16:08;17.40;;;15.68;;
38859;SDS011;24609;48.316;16.174;2023-10-19T12:18:37;22.55;;;18.67;;
38859;SDS011;24609;48.316;16.174;2023-10-19T12:21:04;20.90;;;16.85;;
38859;SDS011;24609;48.316;16.174;2023-10-19T12:23:33;20.27;;;18.10;;
38859;SDS011;24609;48.316;16.174;2023-10-19T12:25:58;16.88;;;15.18;;
38859;SDS011;24609;48.316;16.174;2023-10-19T12:28:28;17.88;;;15.93;;
38859;SDS011;24609;48.316;16.174;2023-10-19T12:30:54;17.45;;;15.50;;
38859;SDS011;24609;48.316;16.174;2023-10-19T12:33:21;16.58;;;14.88;;
38859;SDS011;24609;48.316;16.174;2023-10-19T12:35:46;16.42;;;14.73;;
38859;SDS011;24609;48.316;16.174;2023-10-19T12:38:24;16.95;;;14.45;;
38859;SDS011;24609;48.316;16.174;2023-10-19T12:40:50;17.92;;;16.15;;
38859;SDS011;24609;48.316;16.174;2023-10-19T12:43:17;17.52;;;15.60;;
38859;SDS011;24609;48.316;16.174;2023-10-19T12:45:50;16.92;;;15.20;;
38859;SDS011;24609;48.316;16.174;2023-10-19T12:48:18;16.00;;;14.17;;
38859;SDS011;24609;48.316;16.174;2023-10-19T12:50:45;17.92;;;16.02;;
38859;SDS011;24609;48.316;16.174;2023-10-19T12:53:11;15.60;;;13.65;;
38859;SDS011;24609;48.316;16.174;2023-10-19T12:55:38;16.27;;;14.35;;
38859;SDS011;24609;48.316;16.174;2023-10-19T12:58:05;17.85;;;15.55;;
38859;SDS011;24609;48.316;16.174;2023-10-19T13:00:40;15.55;;;13.45;;
38859;SDS011;24609;48.316;16.174;2023-10-19T13:03:13;17.25;;;15.05;;
38859;SDS011;24609;48.316;16.174;2023-10-19T13:05:41;14.88;;;13.45;;
38859;SDS011;24609;48.316;16.174;2023-10-19T13:08:10;15.55;;;12.20;;
38859;SDS011;24609;48.316;16.174;2023-10-19T13:10:39;14.45;;;12.95;;
38859;SDS011;24609;48.316;16.174;2023-10-19T13:13:09;15.85;;;14.25;;
38859;SDS011;24609;48.316;16.174;2023-10-19T13:15:43;17.45;;;14.18;;
38859;SDS011;24609;48.316;16.174;2023-10-19T13:18:10;16.77;;;14.63;;
38859;SDS011;24609;48.316;16.174;2023-10-19T13:20:45;15.45;;;13.70;;
38859;SDS011;24609;48.316;16.174;2023-10-19T13:23:13;16.63;;;14.00;;
38859;SDS011;24609;48.316;16.174;2023-10-19T13:25:46;16.08;;;13.93;;
38859;SDS011;24609;48.316;16.174;2023-10-19T13:28:19;22.58;;;16.02;;
38859;SDS011;24609;48.316;16.174;2023-10-19T13:33:13;20.30;;;15.05;;
38859;SDS011;24609;48.316;16.174;2023-10-19T13:35:40;19.48;;;16.15;;
38859;SDS011;24609;48.316;16.174;2023-10-19T13:38:08;19.70;;;16.17;;
38859;SDS011;24609;48.316;16.174;2023-10-19T13:40:34;20.48;;;18.02;;
38859;SDS011;24609;48.316;16.174;2023-10-19T13:43:04;17.67;;;15.77;;
38859;SDS011;24609;48.316;16.174;2023-10-19T13:45:31;19.73;;;17.73;;
38859;SDS011;24609;48.316;16.174;2023-10-19T13:48:02;21.92;;;16.15;;
38859;SDS011;24609;48.316;16.174;2023-10-19T13:50:28;23.98;;;19.75;;
38859;SDS011;24609;48.316;16.174;2023-10-19T13:52:54;23.92;;;18.77;;
38859;SDS011;24609;48.316;16.174;2023-10-19T13:55:25;20.80;;;18.40;;
38859;SDS011;24609;48.316;16.174;2023-10-19T13:57:53;21.42;;;19.02;;
38859;SDS011;24609;48.316;16.174;2023-10-19T14:00:20;25.63;;;19.58;;
38859;SDS011;24609;48.316;16.174;2023-10-19T14:03:09;25.77;;;20.33;;
38859;SDS011;24609;48.316;16.174;2023-10-19T14:05:36;25.48;;;22.05;;
38859;SDS011;24609;48.316;16.174;2023-10-19T14:08:03;24.77;;;21.27;;
38859;SDS011;24609;48.316;16.174;2023-10-19T14:10:29;25.83;;;21.25;;
38859;SDS011;24609;48.316;16.174;2023-10-19T14:12:58;23.65;;;21.10;;
38859;SDS011;24609;48.316;16.174;2023-10-19T14:15:24;29.58;;;24.30;;
38859;SDS011;24609;48.316;16.174;2023-10-19T14:17:52;29.83;;;23.30;;
38859;SDS011;24609;48.316;16.174;2023-10-19T14:20:21;28.20;;;22.45;;
38859;SDS011;24609;48.316;16.174;2023-10-19T14:22:50;23.92;;;19.40;;
38859;SDS011;24609;48.316;16.174;2023-10-19T14:25:18;23.88;;;20.40;;
38859;SDS011;24609;48.316;16.174;2023-10-19T14:27:47;23.07;;;18.70;;
38859;SDS011;24609;48.316;16.174;2023-10-19T14:30:15;23.63;;;19.77;;
38859;SDS011;24609;48.316;16.174;2023-10-19T14:32:45;29.35;;;20.92;;